sensor_id;sensor_type;location;lat;lon;timestamp;temperature;humidity
66582;SHT31;53438;48.898;2.308;2023-04-01T03:00:10;11.84;75.67
66582;SHT31;53438;48.898;2.308;2023-04-01T03:02:37;11.88;75.36
66582;SHT31;53438;48.898;2.308;2023-04-01T03:05:04;11.89;75.36
66582;SHT31;53438;48.898;2.308;2023-04-01T03:07:32;11.85;75.16
66582;SHT31;53438;48.898;2.308;2023-04-01T03:09:58;11.84;75.40
66582;SHT31;53438;48.898;2.308;2023-04-01T03:12:23;11.82;75.44
66582;SHT31;53438;48.898;2.308;2023-04-01T03:14:48;11.68;75.35
66582;SHT31;53438;48.898;2.308;2023-04-01T03:17:14;11.75;75.56
66582;SHT31;53438;48.898;2.308;2023-04-01T03:19:39;11.81;75.42
66582;SHT31;53438;48.898;2.308;2023-04-01T03:22:04;11.77;75.80
66582;SHT31;53438;48.898;2.308;2023-04-01T03:24:30;11.74;75.96
66582;SHT31;53438;48.898;2.308;2023-04-01T03:26:55;11.64;76.52
66582;SHT31;53438;48.898;2.308;2023-04-01T03:29:21;11.65;76.26
66582;SHT31;53438;48.898;2.308;2023-04-01T03:31:46;11.47;77.00
66582;SHT31;53438;48.898;2.308;2023-04-01T03:34:11;11.51;77.40
66582;SHT31;53438;48.898;2.308;2023-04-01T03:36:37;11.54;77.25
66582;SHT31;53438;48.898;2.308;2023-04-01T03:39:02;11.55;77.30
66582;SHT31;53438;48.898;2.308;2023-04-01T03:41:28;11.55;77.25
66582;SHT31;53438;48.898;2.308;2023-04-01T03:43:54;11.60;77.11
66582;SHT31;53438;48.898;2.308;2023-04-01T03:46:19;11.68;76.77
66582;SHT31;53438;48.898;2.308;2023-04-01T03:48:45;11.60;76.98
66582;SHT31;53438;48.898;2.308;2023-04-01T03:51:10;11.61;76.85
66582;SHT31;53438;48.898;2.308;2023-04-01T03:53:36;11.60;76.89
66582;SHT31;53438;48.898;2.308;2023-04-01T03:56:05;11.58;76.66
66582;SHT31;53438;48.898;2.308;2023-04-01T03:58:31;11.68;76.30
66582;SHT31;53438;48.898;2.308;2023-04-01T04:00:57;11.51;75.88
66582;SHT31;53438;48.898;2.308;2023-04-01T04:03:22;11.50;75.99
66582;SHT31;53438;48.898;2.308;2023-04-01T04:05:49;11.57;76.00
66582;SHT31;53438;48.898;2.308;2023-04-01T04:08:14;11.63;75.56
66582;SHT31;53438;48.898;2.308;2023-04-01T04:10:40;11.58;75.09
66582;SHT31;53438;48.898;2.308;2023-04-01T04:13:06;11.54;75.12
66582;SHT31;53438;48.898;2.308;2023-04-01T04:15:31;11.58;75.30
66582;SHT31;53438;48.898;2.308;2023-04-01T04:17:57;11.70;74.99
66582;SHT31;53438;48.898;2.308;2023-04-01T04:20:22;11.70;75.13
66582;SHT31;53438;48.898;2.308;2023-04-01T04:22:47;11.64;75.00
66582;SHT31;53438;48.898;2.308;2023-04-01T04:25:13;11.71;74.92
66582;SHT31;53438;48.898;2.308;2023-04-01T04:27:38;11.65;74.71
66582;SHT31;53438;48.898;2.308;2023-04-01T04:30:05;11.71;74.04
66582;SHT31;53438;48.898;2.308;2023-04-01T04:32:31;11.64;74.57
66582;SHT31;53438;48.898;2.308;2023-04-01T04:34:56;11.61;74.71
66582;SHT31;53438;48.898;2.308;2023-04-01T04:37:22;11.73;74.44
66582;SHT31;53438;48.898;2.308;2023-04-01T04:39:47;11.71;74.11
66582;SHT31;53438;48.898;2.308;2023-04-01T04:42:12;11.77;73.63
66582;SHT31;53438;48.898;2.308;2023-04-01T04:44:38;11.70;73.67
66582;SHT31;53438;48.898;2.308;2023-04-01T04:47:04;11.65;74.28
66582;SHT31;53438;48.898;2.308;2023-04-01T04:49:31;11.74;73.94
66582;SHT31;53438;48.898;2.308;2023-04-01T04:51:56;11.75;73.96
66582;SHT31;53438;48.898;2.308;2023-04-01T04:54:21;11.84;73.41
66582;SHT31;53438;48.898;2.308;2023-04-01T04:56:47;11.88;73.53
66582;SHT31;53438;48.898;2.308;2023-04-01T04:59:12;11.85;73.68
66582;SHT31;53438;48.898;2.308;2023-04-01T05:01:38;11.79;73.42
66582;SHT31;53438;48.898;2.308;2023-04-01T05:04:03;11.85;73.44
66582;SHT31;53438;48.898;2.308;2023-04-01T05:06:28;11.81;73.29
66582;SHT31;53438;48.898;2.308;2023-04-01T05:08:57;11.88;73.06
66582;SHT31;53438;48.898;2.308;2023-04-01T05:11:23;11.82;73.13
66582;SHT31;53438;48.898;2.308;2023-04-01T05:13:48;11.84;72.81
66582;SHT31;53438;48.898;2.308;2023-04-01T05:16:18;11.73;72.75
66582;SHT31;53438;48.898;2.308;2023-04-01T05:18:43;11.84;72.68
66582;SHT31;53438;48.898;2.308;2023-04-01T05:21:10;11.81;72.64
66582;SHT31;53438;48.898;2.308;2023-04-01T05:23:36;11.82;72.27
66582;SHT31;53438;48.898;2.308;2023-04-01T05:26:10;11.77;72.29
66582;SHT31;53438;48.898;2.308;2023-04-01T05:28:36;11.78;72.73
66582;SHT31;53438;48.898;2.308;2023-04-01T05:31:03;11.81;72.70
66582;SHT31;53438;48.898;2.308;2023-04-01T05:33:29;11.70;72.54
66582;SHT31;53438;48.898;2.308;2023-04-01T05:35:55;11.68;72.67
66582;SHT31;53438;48.898;2.308;2023-04-01T05:38:20;11.74;72.70
66582;SHT31;53438;48.898;2.308;2023-04-01T05:40:46;11.78;72.23
66582;SHT31;53438;48.898;2.308;2023-04-01T05:43:11;11.70;72.40
66582;SHT31;53438;48.898;2.308;2023-04-01T05:45:36;11.65;72.52
66582;SHT31;53438;48.898;2.308;2023-04-01T05:48:02;11.67;72.44
66582;SHT31;53438;48.898;2.308;2023-04-01T05:50:27;11.68;72.22
66582;SHT31;53438;48.898;2.308;2023-04-01T05:52:53;11.71;72.33
66582;SHT31;53438;48.898;2.308;2023-04-01T05:55:18;11.78;72.05
66582;SHT31;53438;48.898;2.308;2023-04-01T05:57:45;11.71;72.22
66582;SHT31;53438;48.898;2.308;2023-04-01T06:00:12;11.65;72.41
66582;SHT31;53438;48.898;2.308;2023-04-01T06:02:38;11.68;71.85
66582;SHT31;53438;48.898;2.308;2023-04-01T06:07:38;11.74;72.05
66582;SHT31;53438;48.898;2.308;2023-04-01T06:10:12;11.75;72.05
66582;SHT31;53438;48.898;2.308;2023-04-01T06:12:48;11.67;72.01
66582;SHT31;53438;48.898;2.308;2023-04-01T06:15:20;11.75;71.93
66582;SHT31;53438;48.898;2.308;2023-04-01T06:18:09;11.74;72.27
66582;SHT31;53438;48.898;2.308;2023-04-01T06:53:07;11.77;70.69
66582;SHT31;53438;48.898;2.308;2023-04-01T06:55:46;11.74;70.60
66582;SHT31;53438;48.898;2.308;2023-04-01T06:58:23;11.79;70.52
66582;SHT31;53438;48.898;2.308;2023-04-01T07:00:51;11.78;70.40
66582;SHT31;53438;48.898;2.308;2023-04-01T07:03:31;11.86;70.48
66582;SHT31;53438;48.898;2.308;2023-04-01T07:06:03;11.88;70.38
66582;SHT31;53438;48.898;2.308;2023-04-01T07:08:29;11.86;70.22
66582;SHT31;53438;48.898;2.308;2023-04-01T07:11:10;11.86;69.88
66582;SHT31;53438;48.898;2.308;2023-04-01T07:13:49;11.92;69.89
66582;SHT31;53438;48.898;2.308;2023-04-01T07:16:24;11.91;70.23
66582;SHT31;53438;48.898;2.308;2023-04-01T07:19:00;11.85;70.14
66582;SHT31;53438;48.898;2.308;2023-04-01T07:21:51;11.89;70.23
66582;SHT31;53438;48.898;2.308;2023-04-01T07:24:36;11.96;69.98
66582;SHT31;53438;48.898;2.308;2023-04-01T07:27:04;11.92;69.52
66582;SHT31;53438;48.898;2.308;2023-04-01T07:29:30;11.95;69.59
66582;SHT31;53438;48.898;2.308;2023-04-01T07:32:22;12.01;69.81
66582;SHT31;53438;48.898;2.308;2023-04-01T07:45:21;12.13;69.27
66582;SHT31;53438;48.898;2.308;2023-04-01T07:48:05;12.19;69.40
66582;SHT31;53438;48.898;2.308;2023-04-01T07:55:57;12.16;68.80
66582;SHT31;53438;48.898;2.308;2023-04-01T07:58:47;12.21;68.81
66582;SHT31;53438;48.898;2.308;2023-04-01T08:01:55;12.18;68.72
66582;SHT31;53438;48.898;2.308;2023-04-01T08:04:53;12.15;69.02
66582;SHT31;53438;48.898;2.308;2023-04-01T08:19:46;12.43;67.79
66582;SHT31;53438;48.898;2.308;2023-04-01T08:22:25;12.37;67.82
66582;SHT31;53438;48.898;2.308;2023-04-01T08:24:51;12.40;67.84
66582;SHT31;53438;48.898;2.308;2023-04-01T08:27:31;12.22;67.57
66582;SHT31;53438;48.898;2.308;2023-04-01T08:30:03;12.36;67.48
66582;SHT31;53438;48.898;2.308;2023-04-01T08:32:35;12.39;67.56
66582;SHT31;53438;48.898;2.308;2023-04-01T08:35:11;12.46;66.89
66582;SHT31;53438;48.898;2.308;2023-04-01T08:37:41;12.34;66.91
66582;SHT31;53438;48.898;2.308;2023-04-01T08:51:16;12.37;66.61
66582;SHT31;53438;48.898;2.308;2023-04-01T08:57:00;12.42;66.20
66582;SHT31;53438;48.898;2.308;2023-04-01T09:00:04;12.52;66.06
66582;SHT31;53438;48.898;2.308;2023-04-01T09:05:32;12.59;66.20
66582;SHT31;53438;48.898;2.308;2023-04-01T09:21:03;12.74;65.50
66582;SHT31;53438;48.898;2.308;2023-04-01T09:28:58;12.95;65.28
66582;SHT31;53438;48.898;2.308;2023-04-01T09:31:57;12.98;65.53
66582;SHT31;53438;48.898;2.308;2023-04-01T09:34:49;12.95;64.53
66582;SHT31;53438;48.898;2.308;2023-04-01T09:40:18;12.97;64.62
66582;SHT31;53438;48.898;2.308;2023-04-01T09:43:15;12.88;64.26
66582;SHT31;53438;48.898;2.308;2023-04-01T09:48:45;13.00;63.91
66582;SHT31;53438;48.898;2.308;2023-04-01T09:51:44;13.00;62.81
66582;SHT31;53438;48.898;2.308;2023-04-01T09:57:16;13.15;62.54
66582;SHT31;53438;48.898;2.308;2023-04-01T10:23:17;13.53;56.82
66582;SHT31;53438;48.898;2.308;2023-04-01T10:39:43;13.90;55.85
66582;SHT31;53438;48.898;2.308;2023-04-01T10:48:13;14.14;54.75
66582;SHT31;53438;48.898;2.308;2023-04-01T11:02:45;14.42;53.19
66582;SHT31;53438;48.898;2.308;2023-04-01T11:05:48;14.32;52.67
66582;SHT31;53438;48.898;2.308;2023-04-01T11:08:50;14.35;52.96
66582;SHT31;53438;48.898;2.308;2023-04-01T11:33:29;14.42;53.42
66582;SHT31;53438;48.898;2.308;2023-04-01T11:36:07;14.42;53.65
66582;SHT31;53438;48.898;2.308;2023-04-01T11:44:14;14.75;52.34
66582;SHT31;53438;48.898;2.308;2023-04-01T11:52:25;14.58;53.91
66582;SHT31;53438;48.898;2.308;2023-04-01T11:55:16;14.42;54.59
66582;SHT31;53438;48.898;2.308;2023-04-01T11:57:58;14.31;55.06
66582;SHT31;53438;48.898;2.308;2023-04-01T12:06:11;14.24;54.34
66582;SHT31;53438;48.898;2.308;2023-04-01T12:33:24;14.93;50.35
66582;SHT31;53438;48.898;2.308;2023-04-01T12:44:49;15.19;50.53
66582;SHT31;53438;48.898;2.308;2023-04-01T12:47:48;15.09;50.49
66582;SHT31;53438;48.898;2.308;2023-04-01T12:51:07;15.20;50.17
66582;SHT31;53438;48.898;2.308;2023-04-01T12:56:03;15.29;49.22
66582;SHT31;53438;48.898;2.308;2023-04-01T12:59:05;15.24;48.60
66582;SHT31;53438;48.898;2.308;2023-04-01T13:01:52;15.27;49.08
66582;SHT31;53438;48.898;2.308;2023-04-01T13:13:29;15.22;50.38
66582;SHT31;53438;48.898;2.308;2023-04-01T13:19:00;15.02;50.77
66582;SHT31;53438;48.898;2.308;2023-04-01T13:29:38;15.02;51.87
66582;SHT31;53438;48.898;2.308;2023-04-01T13:42:50;15.20;50.99
66582;SHT31;53438;48.898;2.308;2023-04-01T13:51:07;15.22;51.56
66582;SHT31;53438;48.898;2.308;2023-04-01T13:54:04;15.16;51.42
66582;SHT31;53438;48.898;2.308;2023-04-01T13:56:48;15.09;51.34
66582;SHT31;53438;48.898;2.308;2023-04-01T13:59:50;15.16;51.31
66582;SHT31;53438;48.898;2.308;2023-04-01T14:02:50;15.07;50.96
66582;SHT31;53438;48.898;2.308;2023-04-01T14:08:20;15.46;51.03
66582;SHT31;53438;48.898;2.308;2023-04-01T14:11:17;15.47;51.00
66582;SHT31;53438;48.898;2.308;2023-04-01T14:13:59;15.24;51.43
66582;SHT31;53438;48.898;2.308;2023-04-01T14:22:25;15.31;51.87
66582;SHT31;53438;48.898;2.308;2023-04-01T14:28:03;15.27;52.00
66582;SHT31;53438;48.898;2.308;2023-04-01T14:33:34;15.37;52.45
66582;SHT31;53438;48.898;2.308;2023-04-01T14:47:59;14.86;56.19
66582;SHT31;53438;48.898;2.308;2023-04-01T14:50:43;14.88;57.28
66582;SHT31;53438;48.898;2.308;2023-04-01T14:53:29;14.81;58.17
66582;SHT31;53438;48.898;2.308;2023-04-01T14:56:00;14.76;58.50
66582;SHT31;53438;48.898;2.308;2023-04-01T14:58:47;14.86;58.85
66582;SHT31;53438;48.898;2.308;2023-04-01T15:10:07;14.42;58.87
66582;SHT31;53438;48.898;2.308;2023-04-01T15:21:26;13.82;63.90
66582;SHT31;53438;48.898;2.308;2023-04-01T15:26:39;13.46;65.37
66582;SHT31;53438;48.898;2.308;2023-04-01T15:32:17;13.16;68.12
66582;SHT31;53438;48.898;2.308;2023-04-01T15:37:25;13.08;69.26
66582;SHT31;53438;48.898;2.308;2023-04-01T15:39:58;13.15;68.68
66582;SHT31;53438;48.898;2.308;2023-04-01T15:42:47;13.21;68.42
66582;SHT31;53438;48.898;2.308;2023-04-01T15:50:42;13.11;71.04
66582;SHT31;53438;48.898;2.308;2023-04-01T15:55:59;12.47;74.51
66582;SHT31;53438;48.898;2.308;2023-04-01T16:07:03;12.42;73.57
66582;SHT31;53438;48.898;2.308;2023-04-01T16:09:46;12.50;74.23
66582;SHT31;53438;48.898;2.308;2023-04-01T16:15:24;12.68;74.39
66582;SHT31;53438;48.898;2.308;2023-04-01T16:18:09;12.74;75.17
66582;SHT31;53438;48.898;2.308;2023-04-01T16:20:55;12.65;73.40
66582;SHT31;53438;48.898;2.308;2023-04-01T16:23:36;12.56;73.09
66582;SHT31;53438;48.898;2.308;2023-04-01T16:26:09;12.54;73.53
66582;SHT31;53438;48.898;2.308;2023-04-01T16:28:54;12.76;73.16
66582;SHT31;53438;48.898;2.308;2023-04-01T16:31:38;12.79;72.31
66582;SHT31;53438;48.898;2.308;2023-04-01T16:37:17;12.63;72.20
66582;SHT31;53438;48.898;2.308;2023-04-01T16:42:56;12.73;72.18
66582;SHT31;53438;48.898;2.308;2023-04-01T16:51:48;12.54;71.18
66582;SHT31;53438;48.898;2.308;2023-04-01T17:02:17;12.68;70.43
66582;SHT31;53438;48.898;2.308;2023-04-01T17:07:49;12.74;69.39
66582;SHT31;53438;48.898;2.308;2023-04-01T17:10:58;12.47;72.26
66582;SHT31;53438;48.898;2.308;2023-04-01T17:13:34;12.15;73.80
66582;SHT31;53438;48.898;2.308;2023-04-01T17:18:40;12.21;75.76
66582;SHT31;53438;48.898;2.308;2023-04-01T17:21:15;11.99;77.55
66582;SHT31;53438;48.898;2.308;2023-04-01T17:24:09;11.55;80.37
66582;SHT31;53438;48.898;2.308;2023-04-01T17:26:56;11.54;80.63
66582;SHT31;53438;48.898;2.308;2023-04-01T17:32:59;11.57;79.49
66582;SHT31;53438;48.898;2.308;2023-04-01T17:37:49;11.68;79.22
66582;SHT31;53438;48.898;2.308;2023-04-01T17:43:15;11.81;78.90
66582;SHT31;53438;48.898;2.308;2023-04-01T17:45:54;11.70;78.25
66582;SHT31;53438;48.898;2.308;2023-04-01T17:57:02;11.88;78.84
66582;SHT31;53438;48.898;2.308;2023-04-01T17:59:39;11.85;78.83
66582;SHT31;53438;48.898;2.308;2023-04-01T18:10:13;11.84;79.88
66582;SHT31;53438;48.898;2.308;2023-04-01T18:13:10;11.77;80.23
66582;SHT31;53438;48.898;2.308;2023-04-01T18:18:36;11.67;79.19
66582;SHT31;53438;48.898;2.308;2023-04-01T18:21:35;11.88;79.03
66582;SHT31;53438;48.898;2.308;2023-04-01T18:24:16;11.68;78.43
66582;SHT31;53438;48.898;2.308;2023-04-01T18:27:04;11.75;79.32
66582;SHT31;53438;48.898;2.308;2023-04-01T18:29:49;11.75;79.15
66582;SHT31;53438;48.898;2.308;2023-04-01T18:32:44;11.68;78.76
66582;SHT31;53438;48.898;2.308;2023-04-01T18:35:32;11.63;79.45
66582;SHT31;53438;48.898;2.308;2023-04-01T18:38:12;11.71;79.01
66582;SHT31;53438;48.898;2.308;2023-04-01T18:44:04;11.64;78.34
66582;SHT31;53438;48.898;2.308;2023-04-01T18:46:45;11.70;77.93
66582;SHT31;53438;48.898;2.308;2023-04-01T18:49:19;11.68;78.14
66582;SHT31;53438;48.898;2.308;2023-04-01T18:52:07;11.68;77.93
66582;SHT31;53438;48.898;2.308;2023-04-01T18:57:13;11.84;77.84
66582;SHT31;53438;48.898;2.308;2023-04-01T18:59:46;11.78;77.66
66582;SHT31;53438;48.898;2.308;2023-04-01T19:02:33;11.74;77.63
66582;SHT31;53438;48.898;2.308;2023-04-01T19:05:11;11.78;77.85
66582;SHT31;53438;48.898;2.308;2023-04-01T19:21:37;11.67;77.44
66582;SHT31;53438;48.898;2.308;2023-04-01T19:26:58;11.68;77.96
66582;SHT31;53438;48.898;2.308;2023-04-01T19:30:10;11.74;77.90
66582;SHT31;53438;48.898;2.308;2023-04-01T19:38:43;11.67;78.23
66582;SHT31;53438;48.898;2.308;2023-04-01T19:41:38;11.67;78.13
66582;SHT31;53438;48.898;2.308;2023-04-01T19:46:46;11.75;78.36
66582;SHT31;53438;48.898;2.308;2023-04-01T19:49:42;11.77;78.47
66582;SHT31;53438;48.898;2.308;2023-04-01T19:52:39;11.71;78.61
66582;SHT31;53438;48.898;2.308;2023-04-01T19:55:37;11.61;77.86
66582;SHT31;53438;48.898;2.308;2023-04-01T19:58:41;11.58;77.14
66582;SHT31;53438;48.898;2.308;2023-04-01T20:01:35;11.54;77.00
66582;SHT31;53438;48.898;2.308;2023-04-01T20:04:08;11.55;77.45
66582;SHT31;53438;48.898;2.308;2023-04-01T20:06:52;11.60;76.84
66582;SHT31;53438;48.898;2.308;2023-04-01T20:09:35;11.58;76.39
66582;SHT31;53438;48.898;2.308;2023-04-01T20:12:31;11.57;76.96
66582;SHT31;53438;48.898;2.308;2023-04-01T20:15:02;11.68;76.51
66582;SHT31;53438;48.898;2.308;2023-04-01T20:20:18;11.51;76.57
66582;SHT31;53438;48.898;2.308;2023-04-01T20:27:41;11.58;76.32
66582;SHT31;53438;48.898;2.308;2023-04-01T20:36:00;11.51;76.28
66582;SHT31;53438;48.898;2.308;2023-04-01T20:41:36;11.43;75.54
66582;SHT31;53438;48.898;2.308;2023-04-01T20:46:48;11.47;75.63
66582;SHT31;53438;48.898;2.308;2023-04-01T20:49:29;11.45;75.30
66582;SHT31;53438;48.898;2.308;2023-04-01T20:52:06;11.36;75.36
66582;SHT31;53438;48.898;2.308;2023-04-01T20:57:25;11.38;75.50
66582;SHT31;53438;48.898;2.308;2023-04-01T21:25:35;11.28;75.55
66582;SHT31;53438;48.898;2.308;2023-04-01T21:28:16;11.19;75.83
66582;SHT31;53438;48.898;2.308;2023-04-01T21:33:53;11.26;76.40
66582;SHT31;53438;48.898;2.308;2023-04-01T21:36:45;11.23;76.99
66582;SHT31;53438;48.898;2.308;2023-04-01T22:05:12;11.19;77.21
66582;SHT31;53438;48.898;2.308;2023-04-01T22:07:58;11.24;76.76
66582;SHT31;53438;48.898;2.308;2023-04-01T22:13:16;11.13;77.09
66582;SHT31;53438;48.898;2.308;2023-04-01T22:18:34;11.00;76.95
66582;SHT31;53438;48.898;2.308;2023-04-01T22:21:05;11.06;76.82
66582;SHT31;53438;48.898;2.308;2023-04-01T22:23:47;11.06;76.80
66582;SHT31;53438;48.898;2.308;2023-04-01T22:26:27;11.07;76.30
66582;SHT31;53438;48.898;2.308;2023-04-01T22:37:33;11.09;75.41
66582;SHT31;53438;48.898;2.308;2023-04-01T22:40:25;11.02;75.72
66582;SHT31;53438;48.898;2.308;2023-04-01T22:42:57;11.07;75.43
66582;SHT31;53438;48.898;2.308;2023-04-01T22:48:05;11.13;75.57
66582;SHT31;53438;48.898;2.308;2023-04-01T22:50:53;11.15;75.25
66582;SHT31;53438;48.898;2.308;2023-04-01T22:56:11;10.99;76.31
66582;SHT31;53438;48.898;2.308;2023-04-01T22:58:51;11.05;76.34
66582;SHT31;53438;48.898;2.308;2023-04-01T23:01:25;11.02;76.47
66582;SHT31;53438;48.898;2.308;2023-04-01T23:03:55;11.09;76.29
66582;SHT31;53438;48.898;2.308;2023-04-01T23:06:31;11.12;76.01
66582;SHT31;53438;48.898;2.308;2023-04-01T23:09:08;11.05;76.44
66582;SHT31;53438;48.898;2.308;2023-04-01T23:14:30;10.96;76.46
66582;SHT31;53438;48.898;2.308;2023-04-01T23:17:38;10.99;76.48
66582;SHT31;53438;48.898;2.308;2023-04-01T23:20:34;10.92;76.68
66582;SHT31;53438;48.898;2.308;2023-04-01T23:28:42;10.97;75.85
66582;SHT31;53438;48.898;2.308;2023-04-01T23:31:29;10.86;75.21
66582;SHT31;53438;48.898;2.308;2023-04-01T23:34:20;10.86;74.81
66582;SHT31;53438;48.898;2.308;2023-04-01T23:36:48;10.82;74.83
66582;SHT31;53438;48.898;2.308;2023-04-01T23:41:47;10.91;74.66
66582;SHT31;53438;48.898;2.308;2023-04-01T23:44:13;10.93;74.34
66582;SHT31;53438;48.898;2.308;2023-04-01T23:46:40;10.91;74.25
66582;SHT31;53438;48.898;2.308;2023-04-01T23:49:13;10.89;74.33
66582;SHT31;53438;48.898;2.308;2023-04-01T23:51:49;10.83;73.90
66582;SHT31;53438;48.898;2.308;2023-04-01T23:54:29;10.83;73.99
66582;SHT31;53438;48.898;2.308;2023-04-01T23:56:56;10.83;74.10
66582;SHT31;53438;48.898;2.308;2023-04-01T23:59:29;10.85;74.17
